sensor_id;sensor_type;location;lat;lon;timestamp;temperature;humidity
27747;DHT22;15138;51.012;4.692;2023-03-04T00:01:01;6.40;99.90
27747;DHT22;15138;51.012;4.692;2023-03-04T00:03:29;6.30;99.60
27747;DHT22;15138;51.012;4.692;2023-03-04T00:05:57;6.40;99.90
27747;DHT22;15138;51.012;4.692;2023-03-04T00:08:26;6.40;99.80
27747;DHT22;15138;51.012;4.692;2023-03-04T00:10:54;6.30;99.90
27747;DHT22;15138;51.012;4.692;2023-03-04T00:13:23;6.40;99.60
27747;DHT22;15138;51.012;4.692;2023-03-04T00:15:53;6.40;99.40
27747;DHT22;15138;51.012;4.692;2023-03-04T00:18:21;6.40;99.20
27747;DHT22;15138;51.012;4.692;2023-03-04T00:20:49;6.40;98.80
27747;DHT22;15138;51.012;4.692;2023-03-04T00:23:18;6.30;97.50
27747;DHT22;15138;51.012;4.692;2023-03-04T00:25:46;6.30;96.20
27747;DHT22;15138;51.012;4.692;2023-03-04T00:28:15;6.30;96.40
27747;DHT22;15138;51.012;4.692;2023-03-04T00:30:43;6.30;95.70
27747;DHT22;15138;51.012;4.692;2023-03-04T00:33:13;6.30;94.10
27747;DHT22;15138;51.012;4.692;2023-03-04T00:35:41;6.30;93.90
27747;DHT22;15138;51.012;4.692;2023-03-04T00:38:09;6.30;93.30
27747;DHT22;15138;51.012;4.692;2023-03-04T00:40:38;6.30;92.00
27747;DHT22;15138;51.012;4.692;2023-03-04T00:43:06;6.30;92.50
27747;DHT22;15138;51.012;4.692;2023-03-04T00:45:34;6.30;94.10
27747;DHT22;15138;51.012;4.692;2023-03-04T00:48:03;6.20;95.00
27747;DHT22;15138;51.012;4.692;2023-03-04T00:50:33;6.30;95.00
27747;DHT22;15138;51.012;4.692;2023-03-04T00:53:01;6.20;94.80
27747;DHT22;15138;51.012;4.692;2023-03-04T00:55:30;6.20;96.20
27747;DHT22;15138;51.012;4.692;2023-03-04T00:57:58;6.20;95.20
27747;DHT22;15138;51.012;4.692;2023-03-04T01:00:26;6.20;95.80
27747;DHT22;15138;51.012;4.692;2023-03-04T01:02:55;6.20;94.60
27747;DHT22;15138;51.012;4.692;2023-03-04T01:05:23;6.20;96.10
27747;DHT22;15138;51.012;4.692;2023-03-04T01:07:53;6.20;93.00
27747;DHT22;15138;51.012;4.692;2023-03-04T01:10:21;6.20;92.30
27747;DHT22;15138;51.012;4.692;2023-03-04T01:12:49;6.20;91.20
27747;DHT22;15138;51.012;4.692;2023-03-04T01:15:18;6.20;94.90
27747;DHT22;15138;51.012;4.692;2023-03-04T01:17:46;6.10;93.30
27747;DHT22;15138;51.012;4.692;2023-03-04T01:20:15;6.20;93.80
27747;DHT22;15138;51.012;4.692;2023-03-04T01:22:43;6.10;94.60
27747;DHT22;15138;51.012;4.692;2023-03-04T01:25:13;6.20;95.10
27747;DHT22;15138;51.012;4.692;2023-03-04T01:27:41;6.10;95.90
27747;DHT22;15138;51.012;4.692;2023-03-04T01:30:11;6.10;96.60
27747;DHT22;15138;51.012;4.692;2023-03-04T01:32:39;6.10;96.00
27747;DHT22;15138;51.012;4.692;2023-03-04T01:35:08;6.10;94.70
27747;DHT22;15138;51.012;4.692;2023-03-04T01:37:37;6.10;96.00
27747;DHT22;15138;51.012;4.692;2023-03-04T01:40:06;6.10;95.40
27747;DHT22;15138;51.012;4.692;2023-03-04T01:42:36;6.10;91.80
27747;DHT22;15138;51.012;4.692;2023-03-04T01:45:06;6.10;97.10
27747;DHT22;15138;51.012;4.692;2023-03-04T01:47:37;6.10;87.60
27747;DHT22;15138;51.012;4.692;2023-03-04T01:50:12;6.10;90.60
27747;DHT22;15138;51.012;4.692;2023-03-04T01:52:43;6.10;90.50
27747;DHT22;15138;51.012;4.692;2023-03-04T01:55:15;6.10;90.60
27747;DHT22;15138;51.012;4.692;2023-03-04T01:57:47;6.10;87.50
27747;DHT22;15138;51.012;4.692;2023-03-04T02:00:28;6.10;91.30
27747;DHT22;15138;51.012;4.692;2023-03-04T02:02:59;6.00;95.20
27747;DHT22;15138;51.012;4.692;2023-03-04T02:05:29;6.00;95.30
27747;DHT22;15138;51.012;4.692;2023-03-04T02:07:58;6.00;98.00
27747;DHT22;15138;51.012;4.692;2023-03-04T02:10:28;6.00;98.10
27747;DHT22;15138;51.012;4.692;2023-03-04T02:12:58;6.00;96.90
27747;DHT22;15138;51.012;4.692;2023-03-04T02:15:28;6.00;96.90
27747;DHT22;15138;51.012;4.692;2023-03-04T02:17:56;6.00;92.30
27747;DHT22;15138;51.012;4.692;2023-03-04T02:20:33;6.10;90.20
27747;DHT22;15138;51.012;4.692;2023-03-04T02:23:07;6.00;89.40
27747;DHT22;15138;51.012;4.692;2023-03-04T02:25:41;6.00;85.90
27747;DHT22;15138;51.012;4.692;2023-03-04T02:28:13;6.00;87.20
27747;DHT22;15138;51.012;4.692;2023-03-04T02:30:41;6.00;83.50
27747;DHT22;15138;51.012;4.692;2023-03-04T02:33:15;6.00;81.90
27747;DHT22;15138;51.012;4.692;2023-03-04T02:35:44;6.00;85.70
27747;DHT22;15138;51.012;4.692;2023-03-04T02:38:13;6.00;86.30
27747;DHT22;15138;51.012;4.692;2023-03-04T02:40:44;6.00;83.60
27747;DHT22;15138;51.012;4.692;2023-03-04T02:43:15;6.00;86.30
27747;DHT22;15138;51.012;4.692;2023-03-04T02:45:45;6.00;85.50
27747;DHT22;15138;51.012;4.692;2023-03-04T02:48:15;6.00;83.50
27747;DHT22;15138;51.012;4.692;2023-03-04T02:50:46;6.00;83.30
27747;DHT22;15138;51.012;4.692;2023-03-04T02:53:15;6.00;89.10
27747;DHT22;15138;51.012;4.692;2023-03-04T02:55:44;6.00;90.90
27747;DHT22;15138;51.012;4.692;2023-03-04T02:58:12;6.00;93.40
27747;DHT22;15138;51.012;4.692;2023-03-04T03:00:42;5.90;95.60
27747;DHT22;15138;51.012;4.692;2023-03-04T03:03:11;5.90;99.70
27747;DHT22;15138;51.012;4.692;2023-03-04T03:05:39;6.00;99.90
27747;DHT22;15138;51.012;4.692;2023-03-04T03:08:08;6.00;99.90
27747;DHT22;15138;51.012;4.692;2023-03-04T03:10:36;6.00;99.90
27747;DHT22;15138;51.012;4.692;2023-03-04T03:13:05;6.00;99.90
27747;DHT22;15138;51.012;4.692;2023-03-04T03:15:33;6.00;99.90
27747;DHT22;15138;51.012;4.692;2023-03-04T03:18:03;6.00;99.90
27747;DHT22;15138;51.012;4.692;2023-03-04T03:20:31;6.00;99.90
27747;DHT22;15138;51.012;4.692;2023-03-04T03:23:00;6.00;99.90
27747;DHT22;15138;51.012;4.692;2023-03-04T03:25:28;6.00;99.90
27747;DHT22;15138;51.012;4.692;2023-03-04T03:27:56;6.00;99.90
27747;DHT22;15138;51.012;4.692;2023-03-04T03:30:25;6.00;99.90
27747;DHT22;15138;51.012;4.692;2023-03-04T03:32:53;6.00;99.90
27747;DHT22;15138;51.012;4.692;2023-03-04T03:35:23;6.00;99.90
27747;DHT22;15138;51.012;4.692;2023-03-04T03:37:51;6.00;99.90
27747;DHT22;15138;51.012;4.692;2023-03-04T03:40:20;6.00;99.90
27747;DHT22;15138;51.012;4.692;2023-03-04T03:42:48;6.00;99.90
27747;DHT22;15138;51.012;4.692;2023-03-04T03:45:16;6.00;99.90
27747;DHT22;15138;51.012;4.692;2023-03-04T03:47:45;6.00;99.90
27747;DHT22;15138;51.012;4.692;2023-03-04T03:50:14;5.90;99.90
27747;DHT22;15138;51.012;4.692;2023-03-04T03:52:43;5.90;99.90
27747;DHT22;15138;51.012;4.692;2023-03-04T03:55:12;6.00;99.90
27747;DHT22;15138;51.012;4.692;2023-03-04T03:57:40;5.90;99.90
27747;DHT22;15138;51.012;4.692;2023-03-04T04:00:12;5.90;99.90
27747;DHT22;15138;51.012;4.692;2023-03-04T04:02:41;5.90;99.90
27747;DHT22;15138;51.012;4.692;2023-03-04T04:05:10;5.90;99.90
27747;DHT22;15138;51.012;4.692;2023-03-04T04:07:39;5.90;99.90
27747;DHT22;15138;51.012;4.692;2023-03-04T04:10:10;5.90;99.90
27747;DHT22;15138;51.012;4.692;2023-03-04T04:12:39;5.90;99.90
27747;DHT22;15138;51.012;4.692;2023-03-04T04:15:10;5.90;99.90
27747;DHT22;15138;51.012;4.692;2023-03-04T04:17:38;5.90;99.90
27747;DHT22;15138;51.012;4.692;2023-03-04T04:20:08;6.00;99.90
27747;DHT22;15138;51.012;4.692;2023-03-04T04:22:36;6.00;99.90
27747;DHT22;15138;51.012;4.692;2023-03-04T04:25:05;5.90;99.90
27747;DHT22;15138;51.012;4.692;2023-03-04T04:27:38;5.90;99.90
27747;DHT22;15138;51.012;4.692;2023-03-04T04:30:06;6.00;99.90
27747;DHT22;15138;51.012;4.692;2023-03-04T04:32:35;6.00;99.90
27747;DHT22;15138;51.012;4.692;2023-03-04T04:35:04;6.00;99.90
27747;DHT22;15138;51.012;4.692;2023-03-04T04:37:32;5.90;99.90
27747;DHT22;15138;51.012;4.692;2023-03-04T04:40:00;6.00;99.90
27747;DHT22;15138;51.012;4.692;2023-03-04T04:42:29;5.90;99.90
27747;DHT22;15138;51.012;4.692;2023-03-04T04:44:59;5.90;99.90
27747;DHT22;15138;51.012;4.692;2023-03-04T04:47:27;5.90;99.90
27747;DHT22;15138;51.012;4.692;2023-03-04T04:49:55;6.00;99.90
27747;DHT22;15138;51.012;4.692;2023-03-04T04:52:23;5.90;99.90
27747;DHT22;15138;51.012;4.692;2023-03-04T04:54:52;6.00;99.90
27747;DHT22;15138;51.012;4.692;2023-03-04T04:57:20;6.00;99.90
27747;DHT22;15138;51.012;4.692;2023-03-04T04:59:49;6.00;99.90
27747;DHT22;15138;51.012;4.692;2023-03-04T05:02:18;5.90;99.90
27747;DHT22;15138;51.012;4.692;2023-03-04T05:04:47;6.00;99.90
27747;DHT22;15138;51.012;4.692;2023-03-04T05:07:15;6.00;99.90
27747;DHT22;15138;51.012;4.692;2023-03-04T05:09:44;5.90;99.90
27747;DHT22;15138;51.012;4.692;2023-03-04T05:12:12;5.90;99.90
27747;DHT22;15138;51.012;4.692;2023-03-04T05:14:40;6.00;99.90
27747;DHT22;15138;51.012;4.692;2023-03-04T05:17:09;6.00;99.90
27747;DHT22;15138;51.012;4.692;2023-03-04T05:19:38;5.90;99.90
27747;DHT22;15138;51.012;4.692;2023-03-04T05:22:07;5.90;99.90
27747;DHT22;15138;51.012;4.692;2023-03-04T05:24:35;5.90;99.90
27747;DHT22;15138;51.012;4.692;2023-03-04T05:27:03;5.90;99.90
27747;DHT22;15138;51.012;4.692;2023-03-04T05:29:32;5.90;99.90
27747;DHT22;15138;51.012;4.692;2023-03-04T05:32:00;6.30;99.90
27747;DHT22;15138;51.012;4.692;2023-03-04T05:56:57;6.00;99.90
27747;DHT22;15138;51.012;4.692;2023-03-04T05:59:25;6.00;99.90
27747;DHT22;15138;51.012;4.692;2023-03-04T06:01:54;5.90;98.30
27747;DHT22;15138;51.012;4.692;2023-03-04T06:04:22;5.80;99.90
27747;DHT22;15138;51.012;4.692;2023-03-04T06:06:50;5.80;99.90
27747;DHT22;15138;51.012;4.692;2023-03-04T06:09:20;5.80;99.90
27747;DHT22;15138;51.012;4.692;2023-03-04T06:11:49;5.80;99.90
27747;DHT22;15138;51.012;4.692;2023-03-04T06:14:17;5.80;99.90
27747;DHT22;15138;51.012;4.692;2023-03-04T06:16:45;5.80;99.90
27747;DHT22;15138;51.012;4.692;2023-03-04T06:19:14;5.80;99.90
27747;DHT22;15138;51.012;4.692;2023-03-04T06:21:42;5.80;99.90
27747;DHT22;15138;51.012;4.692;2023-03-04T06:24:10;5.80;99.90
27747;DHT22;15138;51.012;4.692;2023-03-04T06:26:40;5.80;99.90
27747;DHT22;15138;51.012;4.692;2023-03-04T06:29:08;5.80;99.90
27747;DHT22;15138;51.012;4.692;2023-03-04T06:31:37;5.80;99.90
27747;DHT22;15138;51.012;4.692;2023-03-04T06:34:08;5.80;99.90
27747;DHT22;15138;51.012;4.692;2023-03-04T06:36:36;5.70;1.00
27747;DHT22;15138;51.012;4.692;2023-03-04T06:39:05;5.90;99.90
27747;DHT22;15138;51.012;4.692;2023-03-04T06:41:34;5.90;1.00
27747;DHT22;15138;51.012;4.692;2023-03-04T06:44:04;5.90;99.90
27747;DHT22;15138;51.012;4.692;2023-03-04T06:46:33;5.90;99.90
27747;DHT22;15138;51.012;4.692;2023-03-04T06:49:01;5.80;99.90
27747;DHT22;15138;51.012;4.692;2023-03-04T06:51:30;5.80;99.90
27747;DHT22;15138;51.012;4.692;2023-03-04T06:53:58;5.80;99.90
27747;DHT22;15138;51.012;4.692;2023-03-04T06:56:26;5.80;99.90
27747;DHT22;15138;51.012;4.692;2023-03-04T06:58:55;5.80;99.90
27747;DHT22;15138;51.012;4.692;2023-03-04T07:01:26;5.80;99.90
27747;DHT22;15138;51.012;4.692;2023-03-04T07:03:56;5.90;99.90
27747;DHT22;15138;51.012;4.692;2023-03-04T07:06:26;5.90;99.90
27747;DHT22;15138;51.012;4.692;2023-03-04T07:08:56;5.90;99.90
27747;DHT22;15138;51.012;4.692;2023-03-04T07:11:25;5.90;99.90
27747;DHT22;15138;51.012;4.692;2023-03-04T07:13:53;5.90;99.90
27747;DHT22;15138;51.012;4.692;2023-03-04T07:16:22;5.90;99.90
27747;DHT22;15138;51.012;4.692;2023-03-04T07:18:52;5.90;99.90
27747;DHT22;15138;51.012;4.692;2023-03-04T07:21:20;5.90;99.90
27747;DHT22;15138;51.012;4.692;2023-03-04T07:23:49;5.90;99.90
27747;DHT22;15138;51.012;4.692;2023-03-04T07:26:17;6.00;99.90
27747;DHT22;15138;51.012;4.692;2023-03-04T07:28:46;6.00;99.90
27747;DHT22;15138;51.012;4.692;2023-03-04T07:31:21;6.00;99.90
27747;DHT22;15138;51.012;4.692;2023-03-04T07:33:50;6.00;99.90
27747;DHT22;15138;51.012;4.692;2023-03-04T07:36:20;6.00;99.90
27747;DHT22;15138;51.012;4.692;2023-03-04T07:38:49;6.10;99.90
27747;DHT22;15138;51.012;4.692;2023-03-04T07:41:22;6.00;99.90
27747;DHT22;15138;51.012;4.692;2023-03-04T07:43:51;6.10;99.90
27747;DHT22;15138;51.012;4.692;2023-03-04T07:46:20;6.10;99.90
27747;DHT22;15138;51.012;4.692;2023-03-04T07:48:48;6.10;99.90
27747;DHT22;15138;51.012;4.692;2023-03-04T07:51:21;6.20;99.90
27747;DHT22;15138;51.012;4.692;2023-03-04T07:53:51;6.10;99.90
27747;DHT22;15138;51.012;4.692;2023-03-04T07:56:21;6.30;99.90
27747;DHT22;15138;51.012;4.692;2023-03-04T07:58:50;6.30;99.90
27747;DHT22;15138;51.012;4.692;2023-03-04T08:01:21;6.30;99.90
27747;DHT22;15138;51.012;4.692;2023-03-04T08:03:49;6.30;99.90
27747;DHT22;15138;51.012;4.692;2023-03-04T08:06:20;6.40;99.90
27747;DHT22;15138;51.012;4.692;2023-03-04T08:08:48;6.40;99.90
27747;DHT22;15138;51.012;4.692;2023-03-04T08:11:19;6.40;99.90
27747;DHT22;15138;51.012;4.692;2023-03-04T08:13:48;6.50;43.40
27747;DHT22;15138;51.012;4.692;2023-03-04T08:16:22;6.50;1.00
27747;DHT22;15138;51.012;4.692;2023-03-04T08:18:52;6.50;1.00
27747;DHT22;15138;51.012;4.692;2023-03-04T08:21:23;6.50;1.00
27747;DHT22;15138;51.012;4.692;2023-03-04T08:23:52;6.50;1.00
27747;DHT22;15138;51.012;4.692;2023-03-04T08:26:23;6.60;1.00
27747;DHT22;15138;51.012;4.692;2023-03-04T08:28:53;6.70;1.00
27747;DHT22;15138;51.012;4.692;2023-03-04T08:31:22;6.70;1.00
27747;DHT22;15138;51.012;4.692;2023-03-04T08:33:51;6.60;99.90
27747;DHT22;15138;51.012;4.692;2023-03-04T08:36:21;6.70;99.90
27747;DHT22;15138;51.012;4.692;2023-03-04T08:38:49;6.80;99.90
27747;DHT22;15138;51.012;4.692;2023-03-04T08:41:18;6.80;99.90
27747;DHT22;15138;51.012;4.692;2023-03-04T08:43:46;6.90;99.90
27747;DHT22;15138;51.012;4.692;2023-03-04T08:46:15;7.10;99.90
27747;DHT22;15138;51.012;4.692;2023-03-04T08:48:43;7.20;99.90
27747;DHT22;15138;51.012;4.692;2023-03-04T08:51:13;7.50;99.90
27747;DHT22;15138;51.012;4.692;2023-03-04T08:53:44;7.50;99.90
27747;DHT22;15138;51.012;4.692;2023-03-04T08:56:13;7.60;99.90
27747;DHT22;15138;51.012;4.692;2023-03-04T08:58:42;7.60;99.90
27747;DHT22;15138;51.012;4.692;2023-03-04T09:01:12;7.70;99.90
27747;DHT22;15138;51.012;4.692;2023-03-04T09:03:41;7.90;99.90
27747;DHT22;15138;51.012;4.692;2023-03-04T09:06:13;7.90;1.00
27747;DHT22;15138;51.012;4.692;2023-03-04T09:08:45;8.00;1.00
27747;DHT22;15138;51.012;4.692;2023-03-04T09:11:14;8.00;1.00
27747;DHT22;15138;51.012;4.692;2023-03-04T09:13:42;8.00;1.00
27747;DHT22;15138;51.012;4.692;2023-03-04T09:16:12;8.20;1.00
27747;DHT22;15138;51.012;4.692;2023-03-04T09:18:41;8.50;1.00
27747;DHT22;15138;51.012;4.692;2023-03-04T09:21:10;8.70;1.00
27747;DHT22;15138;51.012;4.692;2023-03-04T09:23:38;8.60;99.90
27747;DHT22;15138;51.012;4.692;2023-03-04T09:28:44;8.90;99.90
27747;DHT22;15138;51.012;4.692;2023-03-04T09:31:13;8.90;99.90
27747;DHT22;15138;51.012;4.692;2023-03-04T09:33:42;8.90;99.90
27747;DHT22;15138;51.012;4.692;2023-03-04T09:36:12;9.00;99.90
27747;DHT22;15138;51.012;4.692;2023-03-04T09:41:12;8.80;99.90
27747;DHT22;15138;51.012;4.692;2023-03-04T09:43:44;8.80;99.90
27747;DHT22;15138;51.012;4.692;2023-03-04T09:46:15;8.80;99.90
27747;DHT22;15138;51.012;4.692;2023-03-04T09:48:47;8.90;99.90
27747;DHT22;15138;51.012;4.692;2023-03-04T09:51:21;8.90;99.90
27747;DHT22;15138;51.012;4.692;2023-03-04T09:54:02;8.80;99.90
27747;DHT22;15138;51.012;4.692;2023-03-04T09:56:34;8.70;99.90
27747;DHT22;15138;51.012;4.692;2023-03-04T09:59:15;8.60;99.90
27747;DHT22;15138;51.012;4.692;2023-03-04T10:01:47;8.50;99.90
27747;DHT22;15138;51.012;4.692;2023-03-04T10:04:24;8.50;99.90
27747;DHT22;15138;51.012;4.692;2023-03-04T10:06:53;8.40;99.90
27747;DHT22;15138;51.012;4.692;2023-03-04T10:09:25;8.40;99.90
27747;DHT22;15138;51.012;4.692;2023-03-04T10:11:59;8.40;99.90
27747;DHT22;15138;51.012;4.692;2023-03-04T10:14:36;8.40;99.90
27747;DHT22;15138;51.012;4.692;2023-03-04T10:17:11;8.40;99.90
27747;DHT22;15138;51.012;4.692;2023-03-04T10:19:52;8.40;99.90
27747;DHT22;15138;51.012;4.692;2023-03-04T10:22:26;8.30;99.90
27747;DHT22;15138;51.012;4.692;2023-03-04T10:25:00;8.40;99.90
27747;DHT22;15138;51.012;4.692;2023-03-04T10:27:30;8.40;99.90
27747;DHT22;15138;51.012;4.692;2023-03-04T10:30:01;8.40;99.90
27747;DHT22;15138;51.012;4.692;2023-03-04T10:32:29;8.40;99.90
27747;DHT22;15138;51.012;4.692;2023-03-04T10:34:57;8.40;99.90
27747;DHT22;15138;51.012;4.692;2023-03-04T10:37:42;8.40;99.90
27747;DHT22;15138;51.012;4.692;2023-03-04T10:40:18;8.50;99.90
27747;DHT22;15138;51.012;4.692;2023-03-04T10:42:48;8.50;99.90
27747;DHT22;15138;51.012;4.692;2023-03-04T10:45:23;8.60;99.90
27747;DHT22;15138;51.012;4.692;2023-03-04T10:47:52;8.70;99.90
27747;DHT22;15138;51.012;4.692;2023-03-04T10:50:22;8.80;99.90
27747;DHT22;15138;51.012;4.692;2023-03-04T10:52:51;8.90;99.90
27747;DHT22;15138;51.012;4.692;2023-03-04T10:55:23;9.00;99.90
27747;DHT22;15138;51.012;4.692;2023-03-04T10:57:54;9.00;99.90
27747;DHT22;15138;51.012;4.692;2023-03-04T11:00:28;9.10;99.90
27747;DHT22;15138;51.012;4.692;2023-03-04T11:03:28;9.20;99.90
27747;DHT22;15138;51.012;4.692;2023-03-04T11:06:16;9.30;99.90
27747;DHT22;15138;51.012;4.692;2023-03-04T11:08:52;9.40;99.90
27747;DHT22;15138;51.012;4.692;2023-03-04T11:11:23;9.40;99.90
27747;DHT22;15138;51.012;4.692;2023-03-04T11:13:55;9.40;99.90
27747;DHT22;15138;51.012;4.692;2023-03-04T11:16:28;9.60;99.90
27747;DHT22;15138;51.012;4.692;2023-03-04T11:19:01;9.70;99.90
27747;DHT22;15138;51.012;4.692;2023-03-04T11:21:36;9.70;99.90
27747;DHT22;15138;51.012;4.692;2023-03-04T11:24:12;9.90;99.90
27747;DHT22;15138;51.012;4.692;2023-03-04T11:26:58;10.00;99.90
27747;DHT22;15138;51.012;4.692;2023-03-04T11:29:30;10.00;99.90
27747;DHT22;15138;51.012;4.692;2023-03-04T11:32:06;10.20;1.00
27747;DHT22;15138;51.012;4.692;2023-03-04T11:34:40;10.10;99.90
27747;DHT22;15138;51.012;4.692;2023-03-04T11:37:15;10.40;99.90
27747;DHT22;15138;51.012;4.692;2023-03-04T11:39:49;10.60;99.90
27747;DHT22;15138;51.012;4.692;2023-03-04T11:42:25;10.70;99.90
27747;DHT22;15138;51.012;4.692;2023-03-04T11:44:55;10.80;99.90
27747;DHT22;15138;51.012;4.692;2023-03-04T11:47:43;10.90;99.90
27747;DHT22;15138;51.012;4.692;2023-03-04T11:53:03;11.00;99.90
27747;DHT22;15138;51.012;4.692;2023-03-04T11:55:40;11.10;99.90
27747;DHT22;15138;51.012;4.692;2023-03-04T11:58:34;11.00;99.90
27747;DHT22;15138;51.012;4.692;2023-03-04T12:01:07;10.90;99.90
27747;DHT22;15138;51.012;4.692;2023-03-04T12:03:51;10.90;99.90
27747;DHT22;15138;51.012;4.692;2023-03-04T12:06:31;10.70;99.90
27747;DHT22;15138;51.012;4.692;2023-03-04T12:09:12;10.60;99.90
27747;DHT22;15138;51.012;4.692;2023-03-04T12:11:50;10.50;1.00
27747;DHT22;15138;51.012;4.692;2023-03-04T12:14:28;10.20;99.90
27747;DHT22;15138;51.012;4.692;2023-03-04T12:20:29;10.20;99.90
27747;DHT22;15138;51.012;4.692;2023-03-04T12:23:07;10.10;1.00
27747;DHT22;15138;51.012;4.692;2023-03-04T12:25:41;10.00;99.90
27747;DHT22;15138;51.012;4.692;2023-03-04T12:28:31;10.10;99.90
27747;DHT22;15138;51.012;4.692;2023-03-04T12:31:28;10.10;91.50
27747;DHT22;15138;51.012;4.692;2023-03-04T12:34:32;10.10;77.50
27747;DHT22;15138;51.012;4.692;2023-03-04T12:40:23;9.90;99.90
27747;DHT22;15138;51.012;4.692;2023-03-04T12:43:15;10.00;99.90
27747;DHT22;15138;51.012;4.692;2023-03-04T12:45:53;10.00;99.90
27747;DHT22;15138;51.012;4.692;2023-03-04T12:48:29;10.10;99.90
27747;DHT22;15138;51.012;4.692;2023-03-04T12:51:12;10.10;99.90
27747;DHT22;15138;51.012;4.692;2023-03-04T12:53:51;10.00;99.90
27747;DHT22;15138;51.012;4.692;2023-03-04T12:56:26;10.10;99.90
27747;DHT22;15138;51.012;4.692;2023-03-04T12:58:58;10.00;99.90
27747;DHT22;15138;51.012;4.692;2023-03-04T13:01:30;10.10;99.90
27747;DHT22;15138;51.012;4.692;2023-03-04T13:04:04;10.10;99.90
27747;DHT22;15138;51.012;4.692;2023-03-04T13:06:38;10.20;99.90
27747;DHT22;15138;51.012;4.692;2023-03-04T13:09:16;10.20;99.90
27747;DHT22;15138;51.012;4.692;2023-03-04T13:11:52;10.20;60.70
27747;DHT22;15138;51.012;4.692;2023-03-04T13:14:31;10.30;63.30
27747;DHT22;15138;51.012;4.692;2023-03-04T13:19:48;10.30;55.70
27747;DHT22;15138;51.012;4.692;2023-03-04T13:22:31;10.20;52.00
27747;DHT22;15138;51.012;4.692;2023-03-04T13:25:36;10.10;32.30
27747;DHT22;15138;51.012;4.692;2023-03-04T13:28:26;10.10;30.10
27747;DHT22;15138;51.012;4.692;2023-03-04T13:33:51;9.90;99.90
27747;DHT22;15138;51.012;4.692;2023-03-04T13:39:34;10.00;99.90
27747;DHT22;15138;51.012;4.692;2023-03-04T13:42:37;9.90;99.90
27747;DHT22;15138;51.012;4.692;2023-03-04T13:45:31;10.10;99.90
27747;DHT22;15138;51.012;4.692;2023-03-04T13:48:00;10.10;99.90
27747;DHT22;15138;51.012;4.692;2023-03-04T13:50:37;10.00;99.90
27747;DHT22;15138;51.012;4.692;2023-03-04T13:53:32;10.00;99.90
27747;DHT22;15138;51.012;4.692;2023-03-04T13:56:11;9.90;99.90
27747;DHT22;15138;51.012;4.692;2023-03-04T13:58:43;9.80;99.90
27747;DHT22;15138;51.012;4.692;2023-03-04T14:01:25;9.80;99.90
27747;DHT22;15138;51.012;4.692;2023-03-04T14:03:54;9.70;99.90
27747;DHT22;15138;51.012;4.692;2023-03-04T14:06:24;9.60;99.90
27747;DHT22;15138;51.012;4.692;2023-03-04T14:08:54;9.60;99.90
27747;DHT22;15138;51.012;4.692;2023-03-04T14:11:26;9.60;99.90
27747;DHT22;15138;51.012;4.692;2023-03-04T14:13:57;9.50;99.90
27747;DHT22;15138;51.012;4.692;2023-03-04T14:16:28;9.60;99.90
27747;DHT22;15138;51.012;4.692;2023-03-04T14:19:02;9.50;99.90
27747;DHT22;15138;51.012;4.692;2023-03-04T14:21:32;9.50;99.90
27747;DHT22;15138;51.012;4.692;2023-03-04T14:24:05;9.70;99.90
27747;DHT22;15138;51.012;4.692;2023-03-04T14:26:33;9.70;99.90
27747;DHT22;15138;51.012;4.692;2023-03-04T14:29:22;9.80;99.90
27747;DHT22;15138;51.012;4.692;2023-03-04T14:31:51;9.80;99.90
27747;DHT22;15138;51.012;4.692;2023-03-04T14:34:25;9.80;99.90
27747;DHT22;15138;51.012;4.692;2023-03-04T14:36:55;9.80;99.90
27747;DHT22;15138;51.012;4.692;2023-03-04T14:39:26;9.80;99.90
27747;DHT22;15138;51.012;4.692;2023-03-04T14:42:00;9.80;99.90
27747;DHT22;15138;51.012;4.692;2023-03-04T14:44:33;9.80;99.90
27747;DHT22;15138;51.012;4.692;2023-03-04T14:47:12;9.60;99.90
27747;DHT22;15138;51.012;4.692;2023-03-04T14:49:44;9.50;99.90
27747;DHT22;15138;51.012;4.692;2023-03-04T14:52:33;9.50;99.90
27747;DHT22;15138;51.012;4.692;2023-03-04T14:55:15;9.50;99.90
27747;DHT22;15138;51.012;4.692;2023-03-04T14:57:46;9.50;99.90
27747;DHT22;15138;51.012;4.692;2023-03-04T15:00:27;9.50;99.90
27747;DHT22;15138;51.012;4.692;2023-03-04T15:02:58;9.50;99.90
27747;DHT22;15138;51.012;4.692;2023-03-04T15:05:29;9.60;99.90
27747;DHT22;15138;51.012;4.692;2023-03-04T15:07:59;9.50;99.90
27747;DHT22;15138;51.012;4.692;2023-03-04T15:10:29;9.60;99.90
27747;DHT22;15138;51.012;4.692;2023-03-04T15:12:59;9.70;99.90
27747;DHT22;15138;51.012;4.692;2023-03-04T15:15:41;9.60;99.90
27747;DHT22;15138;51.012;4.692;2023-03-04T15:18:23;9.70;99.90
27747;DHT22;15138;51.012;4.692;2023-03-04T15:20:58;9.70;99.90
27747;DHT22;15138;51.012;4.692;2023-03-04T15:23:28;9.70;99.90
27747;DHT22;15138;51.012;4.692;2023-03-04T15:25:58;9.70;99.90
27747;DHT22;15138;51.012;4.692;2023-03-04T15:28:31;9.70;99.90
27747;DHT22;15138;51.012;4.692;2023-03-04T15:31:02;9.60;99.90
27747;DHT22;15138;51.012;4.692;2023-03-04T15:33:31;9.50;99.90
27747;DHT22;15138;51.012;4.692;2023-03-04T15:36:01;9.50;99.90
27747;DHT22;15138;51.012;4.692;2023-03-04T15:38:30;9.50;99.90
27747;DHT22;15138;51.012;4.692;2023-03-04T15:40:58;9.50;99.90
27747;DHT22;15138;51.012;4.692;2023-03-04T15:43:27;9.50;99.90
27747;DHT22;15138;51.012;4.692;2023-03-04T15:45:55;9.40;99.90
27747;DHT22;15138;51.012;4.692;2023-03-04T15:48:25;9.30;99.90
27747;DHT22;15138;51.012;4.692;2023-03-04T15:50:55;9.40;99.90
27747;DHT22;15138;51.012;4.692;2023-03-04T15:53:30;9.40;99.90
27747;DHT22;15138;51.012;4.692;2023-03-04T15:56:00;9.40;99.90
27747;DHT22;15138;51.012;4.692;2023-03-04T15:58:29;9.30;99.90
27747;DHT22;15138;51.012;4.692;2023-03-04T16:01:01;9.30;99.90
27747;DHT22;15138;51.012;4.692;2023-03-04T16:03:31;9.30;99.90
27747;DHT22;15138;51.012;4.692;2023-03-04T16:05:59;9.20;99.90
27747;DHT22;15138;51.012;4.692;2023-03-04T16:08:28;9.20;99.90
27747;DHT22;15138;51.012;4.692;2023-03-04T16:10:56;9.20;99.90
27747;DHT22;15138;51.012;4.692;2023-03-04T16:13:24;9.20;99.90
27747;DHT22;15138;51.012;4.692;2023-03-04T16:15:52;9.10;99.90
27747;DHT22;15138;51.012;4.692;2023-03-04T16:18:21;9.20;99.90
27747;DHT22;15138;51.012;4.692;2023-03-04T16:20:52;9.10;99.90
27747;DHT22;15138;51.012;4.692;2023-03-04T16:23:22;9.10;99.90
27747;DHT22;15138;51.012;4.692;2023-03-04T16:25:53;9.10;99.90
27747;DHT22;15138;51.012;4.692;2023-03-04T16:28:22;9.10;99.90
27747;DHT22;15138;51.012;4.692;2023-03-04T16:30:50;9.10;99.90
27747;DHT22;15138;51.012;4.692;2023-03-04T16:33:19;9.10;99.90
27747;DHT22;15138;51.012;4.692;2023-03-04T16:35:47;9.10;99.90
27747;DHT22;15138;51.012;4.692;2023-03-04T16:38:23;9.10;99.90
27747;DHT22;15138;51.012;4.692;2023-03-04T16:40:54;9.10;99.90
27747;DHT22;15138;51.012;4.692;2023-03-04T16:43:23;9.10;99.90
27747;DHT22;15138;51.012;4.692;2023-03-04T16:45:51;9.00;99.90
27747;DHT22;15138;51.012;4.692;2023-03-04T16:48:20;9.00;99.90
27747;DHT22;15138;51.012;4.692;2023-03-04T16:50:48;9.00;99.90
27747;DHT22;15138;51.012;4.692;2023-03-04T16:53:26;8.90;99.90
27747;DHT22;15138;51.012;4.692;2023-03-04T16:55:57;8.90;99.90
27747;DHT22;15138;51.012;4.692;2023-03-04T16:58:26;8.80;99.90